createdAt,value
2023-02-06T00:02:13.293Z,10.45
2023-02-06T00:04:41.441Z,10.98
2023-02-06T00:07:08.543Z,11.90
2023-02-06T00:09:35.561Z,12.00
2023-02-06T00:12:02.737Z,11.15
2023-02-06T00:14:29.876Z,12.20
2023-02-06T00:16:56.904Z,12.05
2023-02-06T00:19:24.032Z,9.95
2023-02-06T00:21:51.356Z,11.07
2023-02-06T00:24:18.411Z,10.68
2023-02-06T00:26:45.811Z,12.15
2023-02-06T00:29:13.358Z,10.65
2023-02-06T00:31:40.711Z,11.65
2023-02-06T00:34:08.199Z,11.85
2023-02-06T00:36:35.512Z,13.50
2023-02-06T00:39:02.995Z,13.55
2023-02-06T00:41:30.066Z,12.15
2023-02-06T00:43:57.106Z,11.25
2023-02-06T00:46:24.209Z,10.23
2023-02-06T00:48:51.278Z,8.15
2023-02-06T00:51:18.322Z,7.97
2023-02-06T00:53:50.988Z,7.78
2023-02-06T00:56:18.407Z,9.13
2023-02-06T00:58:45.642Z,8.90
2023-02-06T01:01:13.183Z,8.20
2023-02-06T01:03:40.342Z,8.65
2023-02-06T01:06:08.256Z,7.88
2023-02-06T01:08:35.336Z,8.23
2023-02-06T01:11:02.500Z,7.43
2023-02-06T01:13:29.634Z,8.48
2023-02-06T01:15:56.894Z,10.38
2023-02-06T01:18:24.384Z,9.85
2023-02-06T01:20:51.569Z,9.93
2023-02-06T01:23:18.746Z,8.25
2023-02-06T01:25:54.704Z,8.40
2023-02-06T01:28:25.097Z,8.68
2023-02-06T01:33:19.535Z,8.20
2023-02-06T01:35:46.628Z,9.32
2023-02-06T01:38:13.717Z,8.55
2023-02-06T01:40:41.011Z,7.20
2023-02-06T01:43:15.400Z,7.75
2023-02-06T01:45:45.743Z,7.72
2023-02-06T01:48:19.146Z,7.95
2023-02-06T01:50:48.440Z,8.30
2023-02-06T01:53:15.560Z,8.88
2023-02-06T01:55:42.562Z,8.52
2023-02-06T01:58:10.033Z,9.00
2023-02-06T02:00:37.139Z,9.80
2023-02-06T02:03:04.215Z,8.88
2023-02-06T02:05:33.498Z,9.05
2023-02-06T02:08:09.607Z,8.23
2023-02-06T02:10:36.720Z,8.50
2023-02-06T02:13:03.884Z,7.90
2023-02-06T02:15:46.994Z,9.63
2023-02-06T02:18:29.203Z,10.55
2023-02-06T02:21:15.414Z,9.52
2023-02-06T02:23:42.415Z,9.15
2023-02-06T02:26:31.086Z,10.88
2023-02-06T02:29:04.078Z,14.68
2023-02-06T02:31:46.500Z,10.60
2023-02-06T02:34:35.284Z,9.15
2023-02-06T02:37:18.065Z,8.57
2023-02-06T02:40:09.567Z,8.43
2023-02-06T02:43:04.626Z,8.90
2023-02-06T02:45:45.202Z,9.60
2023-02-06T02:48:26.929Z,8.57
2023-02-06T02:50:54.533Z,9.60
2023-02-06T02:53:22.059Z,8.35
2023-02-06T02:55:49.365Z,8.93
2023-02-06T02:58:18.735Z,8.60
2023-02-06T03:00:49.515Z,6.35
2023-02-06T03:03:17.526Z,9.40
2023-02-06T03:06:13.533Z,8.70
2023-02-06T03:08:52.400Z,7.70
2023-02-06T03:11:19.710Z,9.10
2023-02-06T03:14:10.500Z,8.75
2023-02-06T03:16:47.554Z,9.30
2023-02-06T03:19:19.576Z,9.95
2023-02-06T03:21:46.618Z,9.15
2023-02-06T03:24:15.802Z,9.80
2023-02-06T03:26:42.955Z,9.50
2023-02-06T03:29:11.539Z,9.02
2023-02-06T03:31:52.029Z,8.18
2023-02-06T03:34:26.542Z,8.65
2023-02-06T03:36:53.591Z,7.95
2023-02-06T03:39:21.078Z,8.82
2023-02-06T03:41:49.319Z,7.78
2023-02-06T03:44:19.245Z,8.40
2023-02-06T03:46:48.493Z,9.52
2023-02-06T03:49:16.350Z,9.27
2023-02-06T03:51:46.141Z,8.05
2023-02-06T03:54:14.313Z,7.82
2023-02-06T03:56:47.365Z,8.95
2023-02-06T03:59:14.777Z,7.93
2023-02-06T04:01:47.806Z,8.65
2023-02-06T04:04:16.638Z,8.88
2023-02-06T04:06:43.701Z,7.85
2023-02-06T04:09:10.796Z,8.32
2023-02-06T04:11:37.855Z,8.38
2023-02-06T04:14:04.907Z,7.90
2023-02-06T04:16:31.991Z,8.23
2023-02-06T04:18:59.028Z,8.38
2023-02-06T04:21:26.097Z,8.50
2023-02-06T04:23:53.335Z,8.68
2023-02-06T04:26:20.481Z,9.20
2023-02-06T04:28:47.487Z,8.45
2023-02-06T04:31:14.757Z,8.68
2023-02-06T04:33:42.003Z,9.38
2023-02-06T04:36:09.234Z,8.45
2023-02-06T04:38:36.379Z,9.10
2023-02-06T04:41:04.579Z,8.55
2023-02-06T04:43:32.253Z,9.32
2023-02-06T04:45:59.400Z,8.60
2023-02-06T04:48:26.731Z,9.02
2023-02-06T04:50:53.751Z,8.48
2023-02-06T04:53:20.769Z,8.93
2023-02-06T04:55:47.895Z,8.80
2023-02-06T04:58:15.028Z,9.23
2023-02-06T05:00:42.089Z,10.98
2023-02-06T05:03:09.275Z,11.07
2023-02-06T05:05:36.766Z,9.50
2023-02-06T05:08:04.010Z,8.93
2023-02-06T05:10:31.134Z,10.55
2023-02-06T05:12:58.326Z,10.20
2023-02-06T05:15:29.462Z,11.85
2023-02-06T05:17:56.589Z,11.13
2023-02-06T05:20:26.338Z,10.02
2023-02-06T05:22:53.588Z,10.23
2023-02-06T05:25:21.997Z,11.55
2023-02-06T05:27:49.136Z,10.32
2023-02-06T05:30:16.385Z,11.38
2023-02-06T05:32:45.968Z,10.85
2023-02-06T05:35:13.010Z,15.18
2023-02-06T05:37:40.317Z,11.13
2023-02-06T05:40:08.025Z,13.38
2023-02-06T05:42:36.521Z,12.60
2023-02-06T05:45:03.878Z,18.92
2023-02-06T05:47:33.441Z,15.38
2023-02-06T05:50:00.857Z,13.18
2023-02-06T05:52:28.178Z,10.98
2023-02-06T05:54:55.241Z,10.95
2023-02-06T05:57:22.492Z,11.27
2023-02-06T05:59:49.695Z,12.50
2023-02-06T06:02:17.286Z,13.20
2023-02-06T06:04:44.555Z,19.15
2023-02-06T06:10:16.922Z,51.13
2023-02-06T06:12:47.050Z,32.17
2023-02-06T06:16:00.684Z,30.92
2023-02-06T06:18:27.911Z,31.88
2023-02-06T06:20:57.439Z,40.80
2023-02-06T06:23:34.961Z,45.50
2023-02-06T06:26:02.261Z,50.42
2023-02-06T06:28:37.447Z,55.58
2023-02-06T06:31:06.970Z,48.25
2023-02-06T06:33:34.299Z,46.85
2023-02-06T06:36:05.173Z,50.03
2023-02-06T06:38:32.404Z,60.65
2023-02-06T06:41:00.849Z,65.07
2023-02-06T06:43:28.226Z,102.95
2023-02-06T06:46:00.725Z,105.88
2023-02-06T06:48:28.398Z,75.55
2023-02-06T06:50:58.598Z,73.22
2023-02-06T06:53:25.842Z,66.22
2023-02-06T06:55:52.935Z,54.03
2023-02-06T06:58:29.589Z,48.17
2023-02-06T07:00:57.089Z,49.22
2023-02-06T07:03:24.354Z,44.72
2023-02-06T07:05:54.520Z,41.05
2023-02-06T07:08:21.631Z,61.95
2023-02-06T07:11:03.739Z,60.78
2023-02-06T07:13:32.018Z,35.78
2023-02-06T07:15:59.777Z,35.10
2023-02-06T07:18:27.139Z,40.58
2023-02-06T07:21:04.020Z,44.50
2023-02-06T07:23:54.181Z,36.45
2023-02-06T07:26:22.461Z,28.83
2023-02-06T07:28:52.864Z,28.35
2023-02-06T07:33:47.331Z,17.25
2023-02-06T07:36:15.580Z,14.15
2023-02-06T07:38:42.743Z,15.02
2023-02-06T07:41:12.589Z,16.80
2023-02-06T07:43:40.369Z,17.10
2023-02-06T07:46:07.590Z,17.30
2023-02-06T07:48:34.833Z,15.70
2023-02-06T07:51:36.465Z,14.68
2023-02-06T07:54:03.701Z,18.63
2023-02-06T07:56:45.924Z,19.00
2023-02-06T07:59:16.773Z,15.80
2023-02-06T08:01:44.128Z,16.92
2023-02-06T08:04:11.892Z,18.10
2023-02-06T08:06:50.204Z,21.05
2023-02-06T08:09:41.281Z,21.92
2023-02-06T08:12:56.611Z,21.73
2023-02-06T08:15:23.705Z,20.90
2023-02-06T08:17:50.987Z,20.40
2023-02-06T08:20:18.567Z,18.30
2023-02-06T08:22:46.857Z,16.50
2023-02-06T08:25:17.825Z,17.80
2023-02-06T08:28:07.024Z,18.02
2023-02-06T08:30:44.214Z,17.92
2023-02-06T08:33:11.878Z,17.40
2023-02-06T08:35:39.388Z,16.65
2023-02-06T08:38:07.874Z,16.90
2023-02-06T08:40:35.009Z,15.68
2023-02-06T08:43:02.386Z,18.48
2023-02-06T08:45:30.499Z,17.30
2023-02-06T08:48:00.585Z,17.33
2023-02-06T08:50:36.323Z,18.67
2023-02-06T08:53:14.864Z,17.88
2023-02-06T08:58:33.440Z,18.10
2023-02-06T09:03:36.486Z,18.98
2023-02-06T09:06:14.875Z,19.80
2023-02-06T09:08:51.822Z,19.88
2023-02-06T09:11:21.001Z,19.70
2023-02-06T09:22:59.226Z,18.08
2023-02-06T09:36:52.267Z,17.90
2023-02-06T09:39:21.803Z,16.88
2023-02-06T09:47:41.033Z,15.05
2023-02-06T09:50:21.953Z,14.98
2023-02-06T09:53:10.147Z,15.52
2023-02-06T09:55:41.530Z,14.90
2023-02-06T09:58:49.059Z,14.10
2023-02-06T10:01:30.275Z,15.45
2023-02-06T10:04:16.445Z,16.38
2023-02-06T10:07:09.739Z,14.93
2023-02-06T10:09:53.380Z,16.58
2023-02-06T10:12:59.377Z,15.93
2023-02-06T10:16:24.020Z,14.57
2023-02-06T10:19:05.368Z,14.30
2023-02-06T10:21:47.824Z,17.30
2023-02-06T10:24:34.568Z,12.60
2023-02-06T10:27:04.256Z,13.70
2023-02-06T10:29:42.443Z,15.60
2023-02-06T10:32:34.533Z,13.60
2023-02-06T10:35:37.024Z,12.80
2023-02-06T10:38:12.310Z,13.48
2023-02-06T10:41:09.540Z,12.45
2023-02-06T10:44:08.985Z,14.65
2023-02-06T10:46:49.509Z,11.60
2023-02-06T10:50:38.669Z,10.82
2023-02-06T10:54:11.058Z,11.93
2023-02-06T10:57:06.206Z,15.77
2023-02-06T11:00:26.905Z,10.10
2023-02-06T11:03:51.886Z,11.32
2023-02-06T11:06:30.859Z,11.48
2023-02-06T11:09:00.025Z,12.15
2023-02-06T11:11:31.182Z,14.00
2023-02-06T11:14:18.216Z,13.02
2023-02-06T11:16:46.024Z,13.30
2023-02-06T11:19:30.588Z,14.13
2023-02-06T11:22:26.619Z,13.73
2023-02-06T11:27:56.042Z,14.77
2023-02-06T12:21:33.090Z,10.10
2023-02-06T12:24:06.755Z,10.52
2023-02-06T12:26:35.398Z,12.88
2023-02-06T12:29:10.156Z,15.45
2023-02-06T12:32:17.468Z,13.05
2023-02-06T12:34:58.516Z,9.85
2023-02-06T12:37:48.683Z,9.70
2023-02-06T12:40:46.447Z,9.57
2023-02-06T12:43:18.722Z,11.95
2023-02-06T12:45:49.873Z,9.27
2023-02-06T12:48:29.992Z,8.55
2023-02-06T12:51:49.536Z,10.43
2023-02-06T12:54:22.992Z,9.48
2023-02-06T12:57:02.136Z,10.15
2023-02-06T12:59:58.266Z,10.20
2023-02-06T13:02:44.335Z,9.27
2023-02-06T13:05:39.821Z,9.65
2023-02-06T13:08:17.643Z,9.30
2023-02-06T13:11:03.016Z,10.93
2023-02-06T13:14:09.044Z,11.23
2023-02-06T13:16:41.845Z,10.55
2023-02-06T13:19:32.137Z,9.88
2023-02-06T13:22:44.768Z,9.00
2023-02-06T13:25:39.142Z,9.27
2023-02-06T13:31:07.448Z,10.20
2023-02-06T13:33:48.899Z,11.20
2023-02-06T13:36:28.740Z,10.77
2023-02-06T13:39:00.749Z,11.30
2023-02-06T13:41:29.391Z,12.15
2023-02-06T13:44:17.917Z,10.63
2023-02-06T13:47:23.112Z,11.15
2023-02-06T13:50:48.849Z,12.70
2023-02-06T13:53:29.614Z,12.90
2023-02-06T13:56:10.598Z,12.02
2023-02-06T13:58:44.626Z,11.10
2023-02-06T14:01:41.294Z,11.13
2023-02-06T14:04:10.375Z,11.35
2023-02-06T14:06:49.315Z,14.10
2023-02-06T14:16:23.316Z,13.43
2023-02-06T14:19:09.148Z,15.52
2023-02-06T14:30:21.759Z,13.52
2023-02-06T14:32:53.014Z,11.98
2023-02-06T14:35:32.063Z,13.40
2023-02-06T14:38:27.807Z,15.05
2023-02-06T14:40:56.953Z,13.38
2023-02-06T14:43:28.776Z,16.08
2023-02-06T14:46:07.033Z,19.52
2023-02-06T14:48:57.754Z,13.48
2023-02-06T14:51:30.506Z,17.05
2023-02-06T14:54:00.615Z,21.35
2023-02-06T14:56:30.342Z,16.70
2023-02-06T14:59:08.226Z,16.83
2023-02-06T15:01:36.303Z,15.02
2023-02-06T15:04:23.059Z,18.05
2023-02-06T15:06:58.399Z,19.10
2023-02-06T15:09:28.519Z,18.88
2023-02-06T15:11:57.968Z,14.18
2023-02-06T15:14:29.993Z,15.93
2023-02-06T15:17:03.747Z,12.95
2023-02-06T15:19:32.837Z,14.80
2023-02-06T15:22:07.942Z,16.67
2023-02-06T15:24:59.452Z,17.35
2023-02-06T15:27:35.315Z,17.25
2023-02-06T15:30:09.247Z,12.85
2023-02-06T15:32:39.662Z,13.43
2023-02-06T15:35:37.445Z,15.07
2023-02-06T15:38:08.701Z,14.75
2023-02-06T15:40:42.484Z,16.55
2023-02-06T15:43:22.664Z,17.38
2023-02-06T15:45:52.000Z,17.83
2023-02-06T15:48:20.323Z,20.30
2023-02-06T15:51:03.509Z,16.80
2023-02-06T15:53:39.461Z,20.20
2023-02-06T15:56:20.796Z,18.00
2023-02-06T15:58:49.874Z,23.92
2023-02-06T16:01:18.955Z,27.85
2023-02-06T16:03:55.365Z,30.02
2023-02-06T16:06:46.376Z,27.77
2023-02-06T16:09:21.870Z,25.80
2023-02-06T16:11:57.055Z,31.02
2023-02-06T16:14:38.497Z,24.38
2023-02-06T16:17:37.364Z,24.58
2023-02-06T16:20:41.787Z,23.23
2023-02-06T16:23:29.212Z,21.00
2023-02-06T16:26:02.514Z,19.27
2023-02-06T16:28:31.400Z,22.30
2023-02-06T16:31:04.812Z,16.35
2023-02-06T16:33:42.889Z,15.77
2023-02-06T16:36:14.386Z,20.58
2023-02-06T16:38:46.333Z,20.05
2023-02-06T16:41:37.378Z,21.35
2023-02-06T16:44:07.991Z,18.92
2023-02-06T16:49:02.484Z,20.52
2023-02-06T16:51:30.482Z,21.60
2023-02-06T16:53:58.503Z,24.05
2023-02-06T16:56:37.998Z,22.98
2023-02-06T16:59:05.302Z,21.17
2023-02-06T17:01:35.733Z,22.80
2023-02-06T17:04:03.175Z,24.33
2023-02-06T17:06:30.760Z,22.13
2023-02-06T17:09:02.233Z,22.02
2023-02-06T17:11:31.020Z,28.40
2023-02-06T17:14:00.787Z,27.73
2023-02-06T17:16:29.769Z,30.75
2023-02-06T17:18:57.146Z,24.08
2023-02-06T17:21:25.223Z,33.05
2023-02-06T17:23:52.770Z,29.27
2023-02-06T17:26:22.063Z,26.00
2023-02-06T17:28:50.558Z,27.60
2023-02-06T17:31:22.166Z,32.03
2023-02-06T17:34:00.735Z,30.48
2023-02-06T17:36:33.616Z,26.15
2023-02-06T17:39:00.883Z,23.38
2023-02-06T17:41:28.650Z,20.85
2023-02-06T17:43:55.885Z,21.75
2023-02-06T17:46:23.516Z,24.27
2023-02-06T17:48:50.889Z,22.48
2023-02-06T17:51:18.123Z,19.33
2023-02-06T17:53:48.481Z,21.63
2023-02-06T17:56:15.965Z,19.27
2023-02-06T17:58:43.627Z,28.38
2023-02-06T18:01:12.525Z,27.77
2023-02-06T18:03:41.349Z,22.35
2023-02-06T18:06:08.913Z,28.30
2023-02-06T18:08:36.258Z,27.83
2023-02-06T18:11:18.324Z,27.75
2023-02-06T18:13:46.635Z,24.73
2023-02-06T18:16:17.715Z,25.60
2023-02-06T18:18:45.099Z,25.55
2023-02-06T18:21:12.400Z,24.80
2023-02-06T18:23:39.709Z,23.35
2023-02-06T18:26:08.900Z,22.77
2023-02-06T18:28:37.055Z,24.33
2023-02-06T18:31:04.951Z,24.10
2023-02-06T18:33:34.153Z,22.15
2023-02-06T18:36:05.538Z,23.42
2023-02-06T18:38:33.723Z,20.15
2023-02-06T18:41:06.248Z,18.92
2023-02-06T18:43:33.865Z,20.27
2023-02-06T18:46:11.354Z,21.25
2023-02-06T18:48:38.481Z,18.65
2023-02-06T18:51:07.823Z,19.17
2023-02-06T18:53:34.906Z,21.52
2023-02-06T18:56:03.364Z,20.83
2023-02-06T18:58:30.739Z,20.98
2023-02-06T19:00:58.050Z,19.98
2023-02-06T19:03:25.418Z,19.73
2023-02-06T19:05:52.577Z,20.55
2023-02-06T19:08:23.561Z,17.95
2023-02-06T19:10:51.924Z,16.50
2023-02-06T19:13:19.401Z,16.35
2023-02-06T19:15:47.927Z,22.27
2023-02-06T19:18:19.762Z,20.88
2023-02-06T19:20:52.235Z,20.85
2023-02-06T19:23:19.485Z,22.40
2023-02-06T19:25:47.080Z,23.92
2023-02-06T19:28:14.427Z,26.55
2023-02-06T19:30:41.957Z,20.60
2023-02-06T19:33:09.420Z,15.57
2023-02-06T19:35:40.596Z,16.92
2023-02-06T19:38:07.741Z,21.08
2023-02-06T19:40:36.937Z,16.90
2023-02-06T19:43:04.461Z,22.45
2023-02-06T19:45:31.725Z,20.00
2023-02-06T19:47:58.969Z,22.58
2023-02-06T19:50:26.224Z,16.15
2023-02-06T19:52:53.390Z,17.65
2023-02-06T19:55:20.720Z,19.75
2023-02-06T19:57:48.823Z,31.13
2023-02-06T20:00:16.443Z,25.10
2023-02-06T20:02:43.895Z,19.67
2023-02-06T20:05:14.261Z,22.27
2023-02-06T20:07:41.680Z,23.75
2023-02-06T20:10:09.425Z,29.63
2023-02-06T20:12:38.162Z,25.83
2023-02-06T20:15:09.905Z,27.30
2023-02-06T20:17:38.134Z,24.50
2023-02-06T20:20:06.789Z,26.63
2023-02-06T20:22:34.357Z,25.60
2023-02-06T20:25:02.837Z,24.85
2023-02-06T20:27:33.741Z,23.83
2023-02-06T20:30:03.610Z,23.38
2023-02-06T20:32:33.367Z,23.33
2023-02-06T20:35:02.152Z,20.27
2023-02-06T20:37:29.836Z,18.13
2023-02-06T20:40:07.264Z,19.75
2023-02-06T20:42:37.276Z,17.33
2023-02-06T20:45:05.091Z,19.70
2023-02-06T20:47:32.665Z,22.38
2023-02-06T20:50:02.090Z,19.83
2023-02-06T20:52:30.577Z,23.33
2023-02-06T20:54:58.295Z,24.20
2023-02-06T20:57:25.930Z,24.02
2023-02-06T20:59:53.947Z,22.55
2023-02-06T21:02:21.563Z,20.77
2023-02-06T21:04:52.641Z,21.80
2023-02-06T21:07:21.150Z,21.67
2023-02-06T21:09:52.748Z,23.73
2023-02-06T21:12:21.613Z,24.33
2023-02-06T21:14:48.784Z,21.23
2023-02-06T21:17:16.024Z,24.02
2023-02-06T21:19:46.939Z,20.80
2023-02-06T21:22:14.371Z,19.52
2023-02-06T21:24:41.591Z,17.65
2023-02-06T21:27:10.423Z,20.27
2023-02-06T21:29:38.311Z,17.95
2023-02-06T21:32:13.592Z,16.65
2023-02-06T21:34:45.116Z,15.85
2023-02-06T21:37:14.655Z,17.73
2023-02-06T21:39:42.030Z,17.65
2023-02-06T21:42:10.561Z,19.30
2023-02-06T21:44:41.200Z,19.30
2023-02-06T21:47:10.273Z,19.27
2023-02-06T21:49:38.019Z,18.73
2023-02-06T21:52:07.619Z,19.98
2023-02-06T21:54:34.919Z,14.20
2023-02-06T21:57:02.231Z,19.17
2023-02-06T21:59:31.092Z,20.38
2023-02-06T22:01:58.426Z,23.27
2023-02-06T22:04:25.854Z,21.35
2023-02-06T22:06:55.872Z,20.90
2023-02-06T22:09:23.609Z,17.02
2023-02-06T22:11:50.958Z,21.20
2023-02-06T22:14:18.725Z,21.13
2023-02-06T22:16:48.888Z,20.13
2023-02-06T22:19:16.529Z,21.15
2023-02-06T22:21:46.695Z,19.33
2023-02-06T22:24:14.117Z,21.60
2023-02-06T22:26:41.839Z,19.83
2023-02-06T22:29:11.773Z,21.58
2023-02-06T22:31:39.102Z,21.60
2023-02-06T22:34:06.427Z,18.80
2023-02-06T22:36:34.220Z,18.50
2023-02-06T22:39:03.591Z,20.75
2023-02-06T22:41:32.151Z,19.50
2023-02-06T22:43:59.595Z,19.48
2023-02-06T22:46:27.679Z,19.88
2023-02-06T22:48:54.997Z,22.90
2023-02-06T22:51:23.830Z,20.10
2023-02-06T22:53:51.377Z,20.52
2023-02-06T22:56:27.180Z,20.25
2023-02-06T22:58:55.529Z,20.02
2023-02-06T23:01:23.992Z,20.98
2023-02-06T23:03:54.787Z,21.52
2023-02-06T23:06:22.150Z,24.17
2023-02-06T23:08:49.501Z,21.85
2023-02-06T23:11:16.961Z,21.10
2023-02-06T23:14:07.240Z,21.02
2023-02-06T23:16:35.207Z,23.20
2023-02-06T23:19:04.768Z,20.38
2023-02-06T23:21:34.202Z,19.70
2023-02-06T23:24:01.372Z,18.90
2023-02-06T23:26:29.134Z,19.98
2023-02-06T23:28:59.764Z,20.30
2023-02-06T23:31:27.486Z,21.50
2023-02-06T23:33:55.832Z,20.60
2023-02-06T23:36:28.503Z,18.13
2023-02-06T23:38:55.895Z,20.13
2023-02-06T23:41:27.349Z,20.88
2023-02-06T23:43:58.322Z,19.65
2023-02-06T23:46:25.649Z,19.52
2023-02-06T23:48:53.324Z,17.08
2023-02-06T23:51:20.898Z,18.08
2023-02-06T23:53:48.903Z,17.70
2023-02-06T23:56:21.479Z,17.98
2023-02-06T23:58:48.768Z,17.60
